Time;durP1;ratioP1;P1;durP2;ratioP2;P2;SDS_P1;SDS_P2;PMS_P1;PMS_P2;Temp;Humidity;BMP_temperature;BMP_pressure;BME280_temperature;BME280_humidity;BME280_pressure;Samples;Min_cycle;Max_cycle;Signal;HPM_P1;HPM_P2
2022/01/15 00:02:54;;;;;;;;;;;;;;;1.88;100.00;101217.19;5602708;31;34097;-82
2022/01/15 00:06:00;;;;;;;;;;;;;;;1.90;100.00;101234.50;5597289;31;35375;-83
2022/01/15 00:09:03;;;;;;;;;;;;;;;1.79;100.00;101228.84;5602321;31;34513;-82
2022/01/15 00:12:06;;;;;;;;;;;;;;;1.78;100.00;101220.16;5599925;31;35434;-82
2022/01/15 00:15:13;;;;;;;;;;;;;;;1.83;100.00;101231.28;5596113;31;34706;-83
2022/01/15 00:18:29;;;;;;;;;;;;;;;1.80;100.00;101228.78;5597658;31;32854;-83
2022/01/15 00:21:32;;;;;;;;;;;;;;;1.78;100.00;101233.22;5596005;31;33851;-82
2022/01/15 00:24:34;;;;;;;;;;;;;;;1.79;100.00;101237.53;5596350;31;34954;-82
2022/01/15 00:27:38;;;;;;;;;;;;;;;1.75;100.00;101243.75;5596480;31;34211;-81
2022/01/15 00:30:43;;;;;;;;;;;;;;;1.70;100.00;101243.09;5596635;31;35023;-82
2022/01/15 00:33:46;;;;;;;;;;;;;;;1.65;100.00;101245.91;5595908;31;33924;-82
2022/01/15 00:36:48;;;;;;;;;;;;;;;1.67;100.00;101253.66;5595079;31;34583;-83
2022/01/15 00:39:50;;;;;;;;;;;;;;;1.60;100.00;101253.03;5595369;31;34664;-82
2022/01/15 00:42:53;;;;;;;;;;;;;;;1.70;100.00;101262.22;5595117;31;34406;-83
2022/01/15 00:45:57;;;;;;;;;;;;;;;1.61;100.00;101259.12;5595011;31;34137;-82
2022/01/15 00:49:00;;;;;;;;;;;;;;;1.67;100.00;101266.69;5596300;31;34650;-82
2022/01/15 00:52:05;;;;;;;;;;;;;;;1.73;100.00;101268.22;5595086;31;34161;-82
2022/01/15 00:55:09;;;;;;;;;;;;;;;1.68;100.00;101271.00;5595795;31;34350;-83
2022/01/15 00:58:12;;;;;;;;;;;;;;;1.79;100.00;101284.47;5596199;31;34318;-82
2022/01/15 01:01:14;;;;;;;;;;;;;;;1.76;100.00;101288.97;5597554;31;34983;-82
2022/01/15 01:04:20;;;;;;;;;;;;;;;1.71;100.00;101286.56;5596933;31;35145;-82
2022/01/15 01:07:27;;;;;;;;;;;;;;;1.69;100.00;101304.03;5598167;31;35307;-82
2022/01/15 01:20:03;;;;;;;;;;;;;;;1.59;100.00;101308.72;5598114;31;33869;-82
2022/01/15 01:23:51;;;;;;;;;;;;;;;1.48;100.00;101311.75;5598515;31;34417;-82
2022/01/15 01:27:12;;;;;;;;;;;;;;;1.32;100.00;101314.09;5598078;31;34294;-82
2022/01/15 01:30:22;;;;;;;;;;;;;;;1.35;100.00;101320.94;5598511;31;34740;-82
2022/01/15 01:40:00;;;;;;;;;;;;;;;1.54;100.00;101332.37;5598039;31;34688;-82
2022/01/15 01:46:39;;;;;;;;;;;;;;;1.65;100.00;101315.47;5587872;31;34207;-83
2022/01/15 01:49:43;;;;;;;;;;;;;;;1.56;100.00;101324.53;5598459;31;34582;-82
2022/01/15 01:52:50;;;;;;;;;;;;;;;1.61;100.00;101319.13;5597599;31;34626;-82
2022/01/15 01:55:52;;;;;;;;;;;;;;;1.59;100.00;101313.94;5596433;31;34795;-82
2022/01/15 01:58:57;;;;;;;;;;;;;;;1.54;100.00;101321.94;5599525;31;34571;-83
2022/01/15 02:01:59;;;;;;;;;;;;;;;1.48;100.00;101311.75;5597103;31;34414;-83
2022/01/15 02:05:02;;;;;;;;;;;;;;;1.44;100.00;101320.59;5598970;31;34501;-82
2022/01/15 02:08:05;;;;;;;;;;;;;;;1.47;100.00;101314.41;5596641;31;36194;-83
2022/01/15 02:11:08;;;;;;;;;;;;;;;1.50;100.00;101309.94;5599617;31;34742;-83
2022/01/15 02:14:23;;;;;;;;;;;;;;;1.48;100.00;101306.53;5596750;31;34350;-82
2022/01/15 02:17:26;;;;;;;;;;;;;;;1.39;100.00;101299.06;5597502;31;34193;-82
2022/01/15 02:23:35;;;;;;;;;;;;;;;1.43;100.00;101292.81;5596650;31;34624;-82
2022/01/15 02:26:39;;;;;;;;;;;;;;;1.38;100.00;101302.59;5597239;31;35078;-81
2022/01/15 02:29:42;;;;;;;;;;;;;;;1.43;100.00;101300.63;5599989;31;34792;-82
2022/01/15 02:32:44;;;;;;;;;;;;;;;1.37;100.00;101299.13;5605401;31;35435;-82
2022/01/15 02:35:47;;;;;;;;;;;;;;;1.42;100.00;101296.34;5600350;31;34273;-82
2022/01/15 02:38:52;;;;;;;;;;;;;;;1.47;100.00;101294.41;5598043;31;34283;-82
2022/01/15 02:41:55;;;;;;;;;;;;;;;1.53;100.00;101299.38;5599510;31;34575;-83
2022/01/15 02:45:01;;;;;;;;;;;;;;;1.49;100.00;101276.94;5602248;31;35003;-82
2022/01/15 02:48:12;;;;;;;;;;;;;;;1.42;100.00;101280.69;5600135;31;34232;-82
2022/01/15 02:51:15;;;;;;;;;;;;;;;1.44;100.00;101284.09;5599887;31;35113;-82
2022/01/15 02:54:20;;;;;;;;;;;;;;;1.39;100.00;101292.09;5597007;31;34365;-82
2022/01/15 02:57:26;;;;;;;;;;;;;;;1.35;100.00;101285.28;5597950;31;34484;-84
2022/01/15 03:00:28;;;;;;;;;;;;;;;1.40;100.00;101287.75;5598219;31;35254;-84
2022/01/15 03:03:31;;;;;;;;;;;;;;;1.36;100.00;101286.16;5598529;31;35121;-82
2022/01/15 03:06:33;;;;;;;;;;;;;;;1.41;100.00;101284.19;5597980;31;34047;-83
2022/01/15 03:09:35;;;;;;;;;;;;;;;1.37;100.00;101272.19;5598803;31;34676;-82
2022/01/15 03:12:38;;;;;;;;;;;;;;;1.40;100.00;101277.31;5596205;31;35280;-82
2022/01/15 03:15:41;;;;;;;;;;;;;;;1.40;100.00;101279.91;5597566;31;34719;-82
2022/01/15 03:18:44;;;;;;;;;;;;;;;1.42;100.00;101291.13;5598286;31;34024;-82
2022/01/15 03:21:46;;;;;;;;;;;;;;;1.32;100.00;101284.53;5597695;31;34411;-82
2022/01/15 03:24:50;;;;;;;;;;;;;;;1.21;100.00;101277.97;5597959;31;34156;-82
2022/01/15 03:27:54;;;;;;;;;;;;;;;1.21;100.00;101290.19;5597929;31;35243;-80
2022/01/15 03:30:57;;;;;;;;;;;;;;;1.20;100.00;101296.28;5597587;31;34812;-84
2022/01/15 03:33:59;;;;;;;;;;;;;;;1.20;100.00;101310.16;5598813;31;34499;-81
2022/01/15 03:37:01;;;;;;;;;;;;;;;1.20;100.00;101307.56;5596977;31;34309;-82
2022/01/15 03:40:05;;;;;;;;;;;;;;;1.22;100.00;101316.19;5596761;31;34313;-81
2022/01/15 03:43:08;;;;;;;;;;;;;;;1.17;100.00;101312.91;5600285;31;35251;-82
2022/01/15 03:46:10;;;;;;;;;;;;;;;1.11;100.00;101315.72;5601506;31;35544;-82
2022/01/15 03:49:13;;;;;;;;;;;;;;;0.99;100.00;101318.75;5596379;31;34705;-82
2022/01/15 03:52:19;;;;;;;;;;;;;;;0.94;100.00;101312.88;5598188;31;35015;-82
2022/01/15 03:55:23;;;;;;;;;;;;;;;0.84;100.00;101313.22;5596984;31;34214;-82
2022/01/15 03:58:29;;;;;;;;;;;;;;;0.69;100.00;101319.78;5595735;31;34276;-81
2022/01/15 04:01:32;;;;;;;;;;;;;;;0.65;100.00;101341.63;5595528;31;34685;-82
2022/01/15 04:04:35;;;;;;;;;;;;;;;0.72;100.00;101337.91;5598043;31;35188;-82
2022/01/15 04:07:39;;;;;;;;;;;;;;;0.74;100.00;101340.44;5597000;31;34787;-82
2022/01/15 04:10:42;;;;;;;;;;;;;;;0.88;100.00;101342.59;5596515;31;34160;-81
2022/01/15 04:13:44;;;;;;;;;;;;;;;0.76;100.00;101343.84;5595994;31;34603;-81
2022/01/15 04:16:48;;;;;;;;;;;;;;;0.60;100.00;101333.97;5595571;31;34717;-82
2022/01/15 04:19:51;;;;;;;;;;;;;;;0.48;100.00;101351.75;5595563;31;33852;-82
2022/01/15 04:22:56;;;;;;;;;;;;;;;0.53;100.00;101358.50;5595360;31;34995;-81
2022/01/15 04:25:58;;;;;;;;;;;;;;;0.51;100.00;101354.25;5595014;31;35481;-83
2022/01/15 04:29:04;;;;;;;;;;;;;;;0.49;100.00;101362.13;5596686;31;34296;-82
2022/01/15 04:32:07;;;;;;;;;;;;;;;0.59;100.00;101358.31;5597832;31;34903;-82
2022/01/15 04:35:10;;;;;;;;;;;;;;;0.75;100.00;101365.59;5599708;31;34739;-82
2022/01/15 04:38:13;;;;;;;;;;;;;;;0.64;100.00;101370.31;5597858;31;34523;-82
2022/01/15 04:41:16;;;;;;;;;;;;;;;0.57;100.00;101370.53;5599208;31;34019;-82
2022/01/15 04:44:19;;;;;;;;;;;;;;;0.65;100.00;101365.06;5580596;31;34993;-83
2022/01/15 04:47:21;;;;;;;;;;;;;;;0.75;100.00;101352.56;5578611;32;34608;-82
2022/01/15 04:50:24;;;;;;;;;;;;;;;0.64;100.00;101349.47;5579235;32;34617;-81
2022/01/15 04:53:26;;;;;;;;;;;;;;;0.66;100.00;101363.31;5582069;31;34236;-81
2022/01/15 04:56:29;;;;;;;;;;;;;;;0.69;100.00;101363.22;5579216;32;34372;-82
2022/01/15 04:59:33;;;;;;;;;;;;;;;0.55;100.00;101372.31;5582940;32;34278;-81
2022/01/15 05:02:38;;;;;;;;;;;;;;;0.51;100.00;101372.47;5578117;32;34461;-81
2022/01/15 05:05:41;;;;;;;;;;;;;;;0.49;100.00;101382.97;5578439;32;34236;-82
2022/01/15 05:08:47;;;;;;;;;;;;;;;0.48;100.00;101380.38;5580662;32;34500;-81
2022/01/15 05:12:11;;;;;;;;;;;;;;;0.55;100.00;101374.09;5580353;32;34645;-81
2022/01/15 05:15:14;;;;;;;;;;;;;;;0.45;100.00;101376.97;5577831;32;35210;-81
2022/01/15 05:18:17;;;;;;;;;;;;;;;0.36;100.00;101374.66;5578791;32;34574;-83
2022/01/15 05:21:20;;;;;;;;;;;;;;;0.51;100.00;101378.53;5583067;32;35637;-83
2022/01/15 05:24:25;;;;;;;;;;;;;;;0.52;100.00;101385.44;5578541;32;35042;-82
2022/01/15 05:27:27;;;;;;;;;;;;;;;0.42;100.00;101376.22;5579010;32;34421;-82
2022/01/15 05:30:32;;;;;;;;;;;;;;;0.42;100.00;101376.22;5597022;31;34701;-82
2022/01/15 05:33:34;;;;;;;;;;;;;;;0.43;100.00;101380.53;5598020;31;34147;-82
2022/01/15 05:36:39;;;;;;;;;;;;;;;0.49;100.00;101356.91;5598363;31;35130;-82
2022/01/15 05:39:42;;;;;;;;;;;;;;;0.67;100.00;101378.03;5598663;31;34627;-82
2022/01/15 05:42:46;;;;;;;;;;;;;;;0.54;100.00;101388.00;5599094;31;34412;-83
2022/01/15 05:45:49;;;;;;;;;;;;;;;0.75;100.00;101400.34;5598142;31;34711;-84
2022/01/15 05:48:51;;;;;;;;;;;;;;;0.57;100.00;101400.91;5596821;31;34323;-82
2022/01/15 05:51:54;;;;;;;;;;;;;;;0.48;100.00;101396.88;5598793;31;34549;-83
2022/01/15 05:54:57;;;;;;;;;;;;;;;0.39;100.00;101407.59;5598548;31;34902;-82
2022/01/15 05:57:59;;;;;;;;;;;;;;;0.19;100.00;101405.59;5597766;31;33916;-83
2022/01/15 06:01:02;;;;;;;;;;;;;;;0.15;100.00;101410.06;5597048;31;34433;-83
2022/01/15 06:04:07;;;;;;;;;;;;;;;0.26;100.00;101413.19;5601206;31;34738;-83
2022/01/15 06:07:12;;;;;;;;;;;;;;;0.15;100.00;101415.25;5596900;31;34329;-83
2022/01/15 06:10:14;;;;;;;;;;;;;;;0.13;100.00;101414.44;5597736;31;34136;-84
2022/01/15 06:13:17;;;;;;;;;;;;;;;0.14;100.00;101416.16;5598799;31;34877;-84
2022/01/15 06:16:19;;;;;;;;;;;;;;;0.18;100.00;101420.34;5597284;31;34012;-82
2022/01/15 06:19:25;;;;;;;;;;;;;;;0.23;100.00;101431.47;5596780;31;34509;-82
2022/01/15 06:22:27;;;;;;;;;;;;;;;0.08;100.00;101426.72;5597006;31;34539;-83
2022/01/15 06:25:29;;;;;;;;;;;;;;;-0.08;100.00;101426.34;5596523;31;35319;-83
2022/01/15 06:28:35;;;;;;;;;;;;;;;0.04;100.00;101427.75;5596803;31;35143;-83
2022/01/15 06:31:37;;;;;;;;;;;;;;;-0.10;100.00;101423.78;5596491;31;34899;-82
2022/01/15 06:34:40;;;;;;;;;;;;;;;-0.07;100.00;101436.72;5596654;31;35102;-84
2022/01/15 06:37:43;;;;;;;;;;;;;;;-0.02;100.00;101433.97;5596516;31;34521;-83
2022/01/15 06:40:46;;;;;;;;;;;;;;;0.15;100.00;101436.06;5597016;31;34468;-83
2022/01/15 06:43:51;;;;;;;;;;;;;;;0.44;100.00;101432.59;5597632;31;35065;-85
2022/01/15 06:46:57;;;;;;;;;;;;;;;0.34;100.00;101430.31;5597264;31;35344;-83
2022/01/15 06:50:04;;;;;;;;;;;;;;;0.45;100.00;101434.25;5596948;31;34290;-83
2022/01/15 06:53:11;;;;;;;;;;;;;;;0.41;100.00;101437.00;5597354;31;34689;-85
2022/01/15 06:56:16;;;;;;;;;;;;;;;0.49;100.00;101444.59;5596778;31;35603;-85
2022/01/15 06:59:19;;;;;;;;;;;;;;;0.56;100.00;101446.13;5596952;31;34418;-84
2022/01/15 07:02:21;;;;;;;;;;;;;;;0.60;100.00;101450.31;5596914;31;33938;-83
2022/01/15 07:05:24;;;;;;;;;;;;;;;0.50;100.00;101456.72;5597766;31;34390;-84
2022/01/15 07:08:26;;;;;;;;;;;;;;;0.46;100.00;101451.59;5597381;31;34523;-84
2022/01/15 07:11:29;;;;;;;;;;;;;;;0.44;100.00;101448.22;5597362;31;34571;-83
2022/01/15 07:14:31;;;;;;;;;;;;;;;0.48;100.00;101448.97;5601170;31;34948;-83
2022/01/15 07:17:43;;;;;;;;;;;;;;;0.49;100.00;101461.06;5597138;31;34356;-83
2022/01/15 07:20:45;;;;;;;;;;;;;;;0.57;100.00;101463.41;5597555;31;35050;-84
2022/01/15 07:23:50;;;;;;;;;;;;;;;0.48;100.00;101463.72;5597953;31;34311;-83
2022/01/15 07:26:55;;;;;;;;;;;;;;;0.45;100.00;101470.72;5599597;31;34942;-83
2022/01/15 07:29:59;;;;;;;;;;;;;;;0.54;100.00;101476.56;5597838;31;35492;-83
2022/01/15 07:33:01;;;;;;;;;;;;;;;0.55;100.00;101476.50;5596814;31;34590;-83
2022/01/15 07:36:04;;;;;;;;;;;;;;;0.49;100.00;101481.91;5596379;31;34284;-83
2022/01/15 07:39:07;;;;;;;;;;;;;;;0.47;100.00;101473.28;5597482;31;35294;-84
2022/01/15 07:42:10;;;;;;;;;;;;;;;0.49;100.00;101487.13;5595960;31;33935;-83
2022/01/15 07:45:16;;;;;;;;;;;;;;;0.87;100.00;101490.25;5596665;31;34222;-83
2022/01/15 07:48:21;;;;;;;;;;;;;;;1.01;98.01;101501.97;5595857;31;34711;-84
2022/01/15 07:51:27;;;;;;;;;;;;;;;1.04;97.42;101504.50;5595995;31;34006;-84
2022/01/15 07:54:31;;;;;;;;;;;;;;;1.00;97.20;101502.88;5596916;31;34123;-84
2022/01/15 07:57:33;;;;;;;;;;;;;;;0.99;97.67;101506.38;5603402;31;35385;-84
2022/01/15 08:00:36;;;;;;;;;;;;;;;1.05;96.89;101506.22;5595808;31;34118;-83
2022/01/15 08:03:39;;;;;;;;;;;;;;;1.06;97.05;101518.34;5595953;31;34631;-83
2022/01/15 08:06:42;;;;;;;;;;;;;;;1.14;95.69;101510.25;5595175;31;34040;-84
2022/01/15 08:09:44;;;;;;;;;;;;;;;1.20;95.09;101510.91;5595429;31;34121;-83
2022/01/15 08:12:49;;;;;;;;;;;;;;;1.08;96.26;101508.69;5596047;31;34349;-83
2022/01/15 08:15:57;;;;;;;;;;;;;;;0.99;96.36;101514.22;5597212;31;34406;-83
2022/01/15 08:18:59;;;;;;;;;;;;;;;1.15;95.25;101511.94;5596623;31;35236;-83
2022/01/15 08:22:03;;;;;;;;;;;;;;;1.21;94.67;101512.59;5596252;31;34679;-83
2022/01/15 08:25:06;;;;;;;;;;;;;;;1.22;93.86;101514.31;5600590;31;34352;-83
2022/01/15 08:28:11;;;;;;;;;;;;;;;1.50;92.78;101508.19;5596317;31;35640;-84
2022/01/15 08:31:14;;;;;;;;;;;;;;;1.63;91.49;101505.97;5595502;31;34660;-83
2022/01/15 08:34:22;;;;;;;;;;;;;;;1.50;92.40;101508.19;5597723;31;34133;-83
2022/01/15 08:37:24;;;;;;;;;;;;;;;1.52;91.93;101508.94;5595606;31;33941;-83
2022/01/15 08:40:26;;;;;;;;;;;;;;;1.53;92.18;101505.44;5595740;31;34813;-83
2022/01/15 08:43:29;;;;;;;;;;;;;;;1.57;91.93;101510.56;5597296;31;34341;-83
2022/01/15 08:46:32;;;;;;;;;;;;;;;1.67;90.79;101509.31;5596494;31;34285;-84
2022/01/15 08:49:35;;;;;;;;;;;;;;;1.66;90.34;101508.50;5598556;31;35119;-83
2022/01/15 08:52:38;;;;;;;;;;;;;;;1.76;88.48;101502.94;5588238;31;34966;-83
2022/01/15 08:55:44;;;;;;;;;;;;;;;1.87;87.62;101511.22;5574925;32;35019;-84
2022/01/15 08:58:49;;;;;;;;;;;;;;;1.93;87.14;101510.16;5575761;32;34944;-83
2022/01/15 09:01:51;;;;;;;;;;;;;;;1.91;87.28;101511.97;5575390;32;35063;-84
2022/01/15 09:04:54;;;;;;;;;;;;;;;2.07;86.21;101507.91;5574926;32;34440;-84
2022/01/15 09:07:57;;;;;;;;;;;;;;;2.13;85.28;101510.28;5574586;32;34208;-83
2022/01/15 09:11:00;;;;;;;;;;;;;;;2.03;85.84;101511.53;5575172;32;34343;-84
2022/01/15 09:14:03;;;;;;;;;;;;;;;2.03;85.83;101500.25;5575144;32;34869;-83
2022/01/15 09:17:05;;;;;;;;;;;;;;;2.13;85.52;101507.66;5575212;32;35389;-84
2022/01/15 09:20:09;;;;;;;;;;;;;;;2.30;83.78;101509.62;5577359;32;35657;-83
2022/01/15 09:23:12;;;;;;;;;;;;;;;2.24;83.88;101515.09;5577657;32;34341;-83
2022/01/15 09:26:25;;;;;;;;;;;;;;;2.32;83.45;101506.97;5578826;32;35213;-83
2022/01/15 09:32:50;;;;;;;;;;;;;;;2.43;82.16;101509.19;5578619;32;34493;-83
2022/01/15 09:35:56;;;;;;;;;;;;;;;2.45;81.61;101508.19;5579564;32;35335;-83
2022/01/15 09:38:58;;;;;;;;;;;;;;;2.58;80.97;101512.94;5582080;32;34273;-83
2022/01/15 09:42:01;;;;;;;;;;;;;;;2.64;80.29;101507.50;5578024;32;32588;-83
2022/01/15 09:45:07;;;;;;;;;;;;;;;2.74;79.14;101514.06;5578983;32;35287;-83
2022/01/15 09:48:16;;;;;;;;;;;;;;;2.73;79.21;101509.75;5577979;31;34572;-83
2022/01/15 09:51:18;;;;;;;;;;;;;;;2.75;79.63;101505.31;5578255;32;34387;-84
2022/01/15 09:54:21;;;;;;;;;;;;;;;2.81;79.69;101504.22;5580352;32;34278;-84
2022/01/15 09:57:26;;;;;;;;;;;;;;;2.87;79.64;101514.41;5582103;32;34625;-84
2022/01/15 10:00:30;;;;;;;;;;;;;;;2.92;79.65;101490.69;5578161;32;35075;-84
2022/01/15 10:03:36;;;;;;;;;;;;;;;2.87;79.39;101503.12;5577111;32;34565;-83
2022/01/15 10:06:59;;;;;;;;;;;;;;;3.01;79.64;101492.09;5577877;32;34065;-84
2022/01/15 10:10:12;;;;;;;;;;;;;;;2.94;80.19;101499.34;5579334;32;34635;-83
2022/01/15 10:13:17;;;;;;;;;;;;;;;2.91;80.08;101499.44;5577257;32;34705;-83
2022/01/15 10:16:22;;;;;;;;;;;;;;;3.08;80.26;101507.47;5578457;32;34120;-83
2022/01/15 10:19:27;;;;;;;;;;;;;;;3.12;79.59;101508.19;5578148;32;35286;-83
2022/01/15 10:22:32;;;;;;;;;;;;;;;3.15;80.37;101499.38;5577924;32;34785;-83
2022/01/15 10:25:36;;;;;;;;;;;;;;;3.27;79.78;101501.47;5578022;32;35207;-84
2022/01/15 10:29:00;;;;;;;;;;;;;;;3.20;78.77;101489.56;5578715;32;34430;-84
2022/01/15 10:32:12;;;;;;;;;;;;;;;3.21;nan;101499.09;5577695;32;34761;-83
2022/01/15 10:35:17;;;;;;;;;;;;;;;3.24;78.16;101492.00;5580616;32;34925;-83
2022/01/15 10:38:19;;;;;;;;;;;;;;;3.33;78.21;101493.34;5582324;32;34525;-83
2022/01/15 10:41:33;;;;;;;;;;;;;;;3.45;76.76;101478.03;5577948;32;35615;-83
2022/01/15 10:44:37;;;;;;;;;;;;;;;3.52;76.21;101479.50;5577193;32;34742;-84
2022/01/15 10:47:43;;;;;;;;;;;;;;;3.64;76.63;101486.81;5577147;32;34076;-83
2022/01/15 10:50:54;;;;;;;;;;;;;;;3.72;76.22;101475.97;5583982;32;35509;-83
2022/01/15 10:54:01;;;;;;;;;;;;;;;3.68;75.90;101484.91;5579230;32;34531;-84
2022/01/15 10:57:06;;;;;;;;;;;;;;;3.80;75.11;101475.66;5577305;32;34884;-83
2022/01/15 11:00:09;;;;;;;;;;;;;;;3.70;75.17;101477.84;5578778;32;34271;-83
2022/01/15 11:03:17;;;;;;;;;;;;;;;3.81;74.37;101472.12;5577034;32;35031;-84
2022/01/15 11:06:39;;;;;;;;;;;;;;;3.88;73.43;101468.31;5577464;32;35610;-83
2022/01/15 11:09:46;;;;;;;;;;;;;;;3.84;73.46;101464.13;5576845;32;34169;-83
2022/01/15 11:12:49;;;;;;;;;;;;;;;3.97;73.66;101464.41;5577848;32;34419;-83
2022/01/15 11:15:56;;;;;;;;;;;;;;;3.94;73.26;101462.78;5576800;32;34487;-83
2022/01/15 11:18:59;;;;;;;;;;;;;;;3.96;73.32;101460.97;5577029;32;34978;-83
2022/01/15 11:22:03;;;;;;;;;;;;;;;3.86;73.25;101462.31;5577209;32;35041;-83
2022/01/15 11:25:06;;;;;;;;;;;;;;;3.98;73.32;101459.12;5576956;32;34608;-84
2022/01/15 11:28:09;;;;;;;;;;;;;;;4.06;73.48;101457.91;5577128;32;34270;-83
2022/01/15 11:31:19;;;;;;;;;;;;;;;4.01;72.25;101455.50;5576922;31;35512;-84
2022/01/15 11:34:23;;;;;;;;;;;;;;;4.11;72.30;101458.56;5577776;32;34166;-83
2022/01/15 11:37:26;;;;;;;;;;;;;;;4.12;72.43;101455.00;5577204;32;34568;-84
2022/01/15 11:40:39;;;;;;;;;;;;;;;4.21;72.17;101456.34;5576429;32;34994;-83
2022/01/15 11:43:42;;;;;;;;;;;;;;;4.16;71.96;101453.94;5575424;32;33869;-84
2022/01/15 11:46:48;;;;;;;;;;;;;;;4.32;70.02;101449.72;5577269;32;34393;-83
2022/01/15 11:49:52;;;;;;;;;;;;;;;4.35;69.49;101453.94;5578007;32;34884;-83
2022/01/15 11:52:54;;;;;;;;;;;;;;;4.22;68.36;101452.81;5577204;32;34342;-83
2022/01/15 11:56:16;;;;;;;;;;;;;;;4.30;68.59;101433.19;5577283;32;34152;-83
2022/01/15 11:59:24;;;;;;;;;;;;;;;4.42;68.04;101444.03;5578830;32;35604;-83
2022/01/15 12:02:29;;;;;;;;;;;;;;;4.39;67.23;101433.69;5589687;31;34816;-83
2022/01/15 12:05:33;;;;;;;;;;;;;;;4.50;66.79;101441.88;5598826;31;34685;-83
2022/01/15 12:08:39;;;;;;;;;;;;;;;4.49;65.37;101429.69;5598937;31;34696;-83
2022/01/15 12:11:42;;;;;;;;;;;;;;;4.45;64.35;101423.75;5595565;31;34152;-84
2022/01/15 12:14:51;;;;;;;;;;;;;;;4.54;64.09;101417.22;5597177;31;34945;-83
2022/01/15 12:17:59;;;;;;;;;;;;;;;4.42;64.93;101429.13;5595608;31;34422;-84
2022/01/15 12:21:01;;;;;;;;;;;;;;;4.57;64.38;101417.06;5595443;31;34869;-83
2022/01/15 12:24:26;;;;;;;;;;;;;;;4.46;65.87;101427.22;5596765;31;36707;-83
2022/01/15 12:27:29;;;;;;;;;;;;;;;4.51;65.67;101422.59;5597652;31;34638;-84
2022/01/15 12:30:41;;;;;;;;;;;;;;;4.55;65.93;101429.41;5597550;31;34629;-83
2022/01/15 12:33:43;;;;;;;;;;;;;;;4.49;66.17;101424.44;5595616;31;35465;-83
2022/01/15 12:36:48;;;;;;;;;;;;;;;4.55;66.66;101426.78;5596664;31;34348;-82
2022/01/15 12:39:51;;;;;;;;;;;;;;;4.54;67.30;101419.84;5596588;31;34395;-85
2022/01/15 12:42:56;;;;;;;;;;;;;;;4.44;68.36;101400.25;5597357;31;34273;-83
2022/01/15 12:46:00;;;;;;;;;;;;;;;4.40;67.62;101409.19;5596819;31;34583;-83
2022/01/15 12:49:07;;;;;;;;;;;;;;;4.48;67.25;101412.25;5597114;31;35008;-84
2022/01/15 12:52:11;;;;;;;;;;;;;;;4.43;68.32;101411.66;5596295;31;34596;-82
2022/01/15 12:55:16;;;;;;;;;;;;;;;4.39;68.93;101416.16;5599211;31;34488;-82
2022/01/15 12:58:20;;;;;;;;;;;;;;;4.37;69.54;101422.41;5600358;31;35140;-82
2022/01/15 13:01:27;;;;;;;;;;;;;;;4.37;69.19;101425.03;5599460;31;34374;-82
2022/01/15 13:04:30;;;;;;;;;;;;;;;4.29;69.24;101421.03;5597781;31;34346;-82
2022/01/15 13:07:52;;;;;;;;;;;;;;;4.37;68.85;101393.59;5598826;31;34476;-82
2022/01/15 13:11:07;;;;;;;;;;;;;;;4.33;69.35;101414.69;5597739;31;35074;-83
2022/01/15 13:14:10;;;;;;;;;;;;;;;4.36;69.69;101398.00;5598168;31;34021;-82
2022/01/15 13:17:21;;;;;;;;;;;;;;;4.24;70.63;101393.34;5602816;31;34708;-82
2022/01/15 13:20:28;;;;;;;;;;;;;;;4.31;69.78;101400.84;5602295;31;35404;-84
2022/01/15 13:23:38;;;;;;;;;;;;;;;4.29;69.79;101399.19;5600812;31;35525;-84
2022/01/15 13:26:45;;;;;;;;;;;;;;;4.30;70.52;101403.53;5597198;31;34328;-82
2022/01/15 13:29:48;;;;;;;;;;;;;;;4.20;71.43;101405.75;5598215;31;34697;-82
2022/01/15 13:32:56;;;;;;;;;;;;;;;4.25;71.25;101393.25;5597913;31;34695;-82
2022/01/15 13:36:02;;;;;;;;;;;;;;;4.21;70.90;101404.84;5598882;31;35190;-82
2022/01/15 13:39:05;;;;;;;;;;;;;;;4.07;71.13;101396.78;5599893;31;34754;-82
2022/01/15 13:42:15;;;;;;;;;;;;;;;4.09;69.11;101401.00;5600945;31;34473;-83
2022/01/15 13:45:18;;;;;;;;;;;;;;;4.09;70.03;101394.94;5598011;31;34462;-82
2022/01/15 13:48:25;;;;;;;;;;;;;;;4.06;70.73;101409.00;5599052;31;34647;-84
2022/01/15 13:55:15;;;;;;;;;;;;;;;4.03;71.39;101396.06;5578801;32;34951;-83
2022/01/15 13:58:18;;;;;;;;;;;;;;;3.95;70.92;101392.94;5576030;31;34541;-82
2022/01/15 14:01:22;;;;;;;;;;;;;;;3.92;70.28;101407.03;5577232;32;35427;-82
2022/01/15 14:04:34;;;;;;;;;;;;;;;3.97;70.47;101407.69;5577340;32;34736;-83
2022/01/15 14:07:37;;;;;;;;;;;;;;;3.98;70.46;101406.75;5578519;31;34216;-83
2022/01/15 14:10:41;;;;;;;;;;;;;;;3.90;70.68;101398.38;5577982;31;34466;-84
2022/01/15 14:13:46;;;;;;;;;;;;;;;3.89;70.90;101401.94;5576584;31;35029;-82
2022/01/15 14:16:52;;;;;;;;;;;;;;;3.90;70.12;101401.00;5577364;31;34771;-83
2022/01/15 14:23:03;;;;;;;;;;;;;;;3.83;69.52;101391.75;5578283;31;34846;-84
2022/01/15 14:26:15;;;;;;;;;;;;;;;3.72;69.34;101397.47;5578329;31;34812;-84
2022/01/15 14:29:18;;;;;;;;;;;;;;;3.67;69.16;101394.22;5591209;31;34883;-83
2022/01/15 14:32:21;;;;;;;;;;;;;;;3.62;70.04;101391.81;5598289;31;34888;-82
2022/01/15 14:35:25;;;;;;;;;;;;;;;3.60;69.22;101391.03;5599202;31;34186;-82
2022/01/15 14:38:27;;;;;;;;;;;;;;;3.60;69.33;101393.66;5591761;31;34439;-85
2022/01/15 14:41:34;;;;;;;;;;;;;;;3.58;69.10;101385.00;5577237;32;34417;-84
2022/01/15 14:44:36;;;;;;;;;;;;;;;3.48;70.09;101392.44;5576441;32;34376;-84
2022/01/15 14:47:39;;;;;;;;;;;;;;;3.49;70.00;101385.44;5577347;32;34458;-85
2022/01/15 14:50:44;;;;;;;;;;;;;;;3.36;70.25;101391.19;5576638;32;34305;-84
2022/01/15 14:53:47;;;;;;;;;;;;;;;3.36;70.04;101385.13;5576619;32;34572;-84
2022/01/15 14:56:52;;;;;;;;;;;;;;;3.31;69.99;101387.09;5577739;32;34480;-83
2022/01/15 14:59:55;;;;;;;;;;;;;;;3.12;70.85;101393.13;5577820;32;34933;-84
2022/01/15 15:02:57;;;;;;;;;;;;;;;3.00;71.57;101393.66;5577794;32;35263;-84
2022/01/15 15:06:03;;;;;;;;;;;;;;;3.02;71.34;101397.91;5576294;32;34594;-84
2022/01/15 15:09:07;;;;;;;;;;;;;;;3.02;71.45;101392.66;5576490;32;34018;-84
2022/01/15 15:12:10;;;;;;;;;;;;;;;2.86;72.33;101389.87;5577815;32;34178;-84
2022/01/15 15:15:13;;;;;;;;;;;;;;;2.78;72.50;101394.56;5576027;32;34506;-84
2022/01/15 15:18:18;;;;;;;;;;;;;;;2.78;72.67;101391.94;5576002;32;34305;-84
2022/01/15 15:21:21;;;;;;;;;;;;;;;2.73;73.00;101402.59;5576939;32;35021;-84
2022/01/15 15:24:23;;;;;;;;;;;;;;;2.62;73.34;101404.81;5576426;32;35077;-83
2022/01/15 15:27:28;;;;;;;;;;;;;;;2.78;72.77;101408.47;5576617;32;34512;-84
2022/01/15 15:30:31;;;;;;;;;;;;;;;2.59;73.53;101404.91;5576247;32;34280;-83
2022/01/15 15:33:34;;;;;;;;;;;;;;;2.51;73.53;101407.00;5576068;32;35193;-83
2022/01/15 15:36:37;;;;;;;;;;;;;;;2.27;74.58;101405.28;5577079;32;34889;-83
2022/01/15 15:39:43;;;;;;;;;;;;;;;2.22;75.04;101395.94;5575959;32;34637;-83
2022/01/15 15:42:45;;;;;;;;;;;;;;;2.17;75.02;101398.72;5576227;32;34182;-83
2022/01/15 15:45:50;;;;;;;;;;;;;;;2.18;74.98;101399.59;5579199;32;34423;-83
2022/01/15 15:48:54;;;;;;;;;;;;;;;1.99;75.72;101398.56;5580308;32;36783;-83
2022/01/15 15:51:56;;;;;;;;;;;;;;;2.25;74.28;101414.09;5575876;31;34083;-83
2022/01/15 15:55:08;;;;;;;;;;;;;;;2.27;74.16;101409.69;5577660;32;34871;-84
2022/01/15 15:58:11;;;;;;;;;;;;;;;2.02;75.33;101405.41;5576244;32;34309;-83
2022/01/15 16:01:14;;;;;;;;;;;;;;;1.87;76.21;101403.37;5577944;32;35588;-83
2022/01/15 16:04:17;;;;;;;;;;;;;;;1.65;76.85;101401.56;5579851;32;34720;-83
2022/01/15 16:07:27;;;;;;;;;;;;;;;1.69;77.00;101392.72;5577038;32;35582;-83
2022/01/15 16:10:32;;;;;;;;;;;;;;;1.77;76.71;101393.28;5580326;32;34074;-84
2022/01/15 16:13:34;;;;;;;;;;;;;;;1.52;77.62;101393.34;5574928;32;34321;-84
2022/01/15 16:16:37;;;;;;;;;;;;;;;1.50;77.77;101390.81;5575457;32;34178;-83
2022/01/15 16:19:40;;;;;;;;;;;;;;;1.37;78.28;101397.38;5576569;32;34954;-84
2022/01/15 16:22:43;;;;;;;;;;;;;;;1.31;78.94;101394.97;5575081;32;33975;-83
2022/01/15 16:25:50;;;;;;;;;;;;;;;1.38;78.39;101391.25;5575321;32;35012;-81
2022/01/15 16:28:53;;;;;;;;;;;;;;;1.35;78.70;101401.78;5572370;31;34750;-83
2022/01/15 16:31:55;;;;;;;;;;;;;;;1.45;77.95;101410.13;5559280;32;34619;-83